sensor_id;sensor_type;location;lat;lon;timestamp;temperature;humidity
7174;DHT22;3628;48.654;8.932;2023-03-21T00:01:55;10.00;99.90
7174;DHT22;3628;48.654;8.932;2023-03-21T00:04:22;9.90;99.90
7174;DHT22;3628;48.654;8.932;2023-03-21T00:06:49;9.90;99.90
7174;DHT22;3628;48.654;8.932;2023-03-21T00:09:15;9.80;99.90
7174;DHT22;3628;48.654;8.932;2023-03-21T00:11:40;9.80;99.90
7174;DHT22;3628;48.654;8.932;2023-03-21T00:14:06;9.70;99.90
7174;DHT22;3628;48.654;8.932;2023-03-21T00:16:33;9.80;99.90
7174;DHT22;3628;48.654;8.932;2023-03-21T00:19:01;9.70;99.90
7174;DHT22;3628;48.654;8.932;2023-03-21T00:21:30;9.70;99.90
7174;DHT22;3628;48.654;8.932;2023-03-21T00:23:58;9.70;99.90
7174;DHT22;3628;48.654;8.932;2023-03-21T00:26:24;9.70;99.90
7174;DHT22;3628;48.654;8.932;2023-03-21T00:28:50;9.70;99.90
7174;DHT22;3628;48.654;8.932;2023-03-21T00:31:16;9.70;99.90
7174;DHT22;3628;48.654;8.932;2023-03-21T00:33:42;9.70;99.90
7174;DHT22;3628;48.654;8.932;2023-03-21T00:36:09;9.70;99.90
7174;DHT22;3628;48.654;8.932;2023-03-21T00:38:35;9.70;99.90
7174;DHT22;3628;48.654;8.932;2023-03-21T00:41:05;9.80;99.90
7174;DHT22;3628;48.654;8.932;2023-03-21T00:43:31;9.80;99.90
7174;DHT22;3628;48.654;8.932;2023-03-21T00:45:57;9.80;99.90
7174;DHT22;3628;48.654;8.932;2023-03-21T00:48:24;9.70;99.90
7174;DHT22;3628;48.654;8.932;2023-03-21T00:50:51;9.80;99.90
7174;DHT22;3628;48.654;8.932;2023-03-21T00:53:18;9.70;99.90
7174;DHT22;3628;48.654;8.932;2023-03-21T00:55:44;9.70;99.90
7174;DHT22;3628;48.654;8.932;2023-03-21T00:58:10;9.70;99.90
7174;DHT22;3628;48.654;8.932;2023-03-21T01:00:36;9.70;99.90
7174;DHT22;3628;48.654;8.932;2023-03-21T01:03:03;9.70;99.90
7174;DHT22;3628;48.654;8.932;2023-03-21T01:05:36;9.70;99.90
7174;DHT22;3628;48.654;8.932;2023-03-21T01:08:22;9.70;99.90
7174;DHT22;3628;48.654;8.932;2023-03-21T01:10:49;9.70;99.90
7174;DHT22;3628;48.654;8.932;2023-03-21T01:13:17;9.70;99.90
7174;DHT22;3628;48.654;8.932;2023-03-21T01:16:03;9.70;99.90
7174;DHT22;3628;48.654;8.932;2023-03-21T01:18:30;9.70;99.90
7174;DHT22;3628;48.654;8.932;2023-03-21T01:20:57;9.70;99.90
7174;DHT22;3628;48.654;8.932;2023-03-21T01:23:23;9.70;99.90
7174;DHT22;3628;48.654;8.932;2023-03-21T01:25:51;9.70;99.90
7174;DHT22;3628;48.654;8.932;2023-03-21T01:28:17;9.70;99.90
7174;DHT22;3628;48.654;8.932;2023-03-21T01:30:47;9.60;99.90
7174;DHT22;3628;48.654;8.932;2023-03-21T01:33:13;9.70;99.90
7174;DHT22;3628;48.654;8.932;2023-03-21T01:35:39;9.60;99.90
7174;DHT22;3628;48.654;8.932;2023-03-21T01:38:05;9.60;99.90
7174;DHT22;3628;48.654;8.932;2023-03-21T01:40:31;9.60;99.90
7174;DHT22;3628;48.654;8.932;2023-03-21T01:42:56;9.60;99.90
7174;DHT22;3628;48.654;8.932;2023-03-21T01:48:26;9.60;99.90
7174;DHT22;3628;48.654;8.932;2023-03-21T01:50:52;9.50;99.90
7174;DHT22;3628;48.654;8.932;2023-03-21T01:53:19;9.50;99.90
7174;DHT22;3628;48.654;8.932;2023-03-21T01:55:47;9.50;99.90
7174;DHT22;3628;48.654;8.932;2023-03-21T01:58:15;9.50;99.90
7174;DHT22;3628;48.654;8.932;2023-03-21T02:00:44;9.50;99.90
7174;DHT22;3628;48.654;8.932;2023-03-21T02:03:11;9.50;99.90
7174;DHT22;3628;48.654;8.932;2023-03-21T02:06:01;9.40;99.90
7174;DHT22;3628;48.654;8.932;2023-03-21T02:08:30;9.40;99.90
7174;DHT22;3628;48.654;8.932;2023-03-21T02:10:56;9.40;99.90
7174;DHT22;3628;48.654;8.932;2023-03-21T02:13:22;9.40;99.90
7174;DHT22;3628;48.654;8.932;2023-03-21T02:18:39;9.40;99.90
7174;DHT22;3628;48.654;8.932;2023-03-21T02:24:44;9.30;99.90
7174;DHT22;3628;48.654;8.932;2023-03-21T02:27:21;9.30;99.90
7174;DHT22;3628;48.654;8.932;2023-03-21T02:30:26;9.30;99.90
7174;DHT22;3628;48.654;8.932;2023-03-21T02:33:16;9.20;99.90
7174;DHT22;3628;48.654;8.932;2023-03-21T02:38:41;9.20;99.90
7174;DHT22;3628;48.654;8.932;2023-03-21T02:50:11;9.10;99.90
7174;DHT22;3628;48.654;8.932;2023-03-21T02:52:22;9.10;99.90
7174;DHT22;3628;48.654;8.932;2023-03-21T02:54:49;9.10;99.90
7174;DHT22;3628;48.654;8.932;2023-03-21T02:57:17;9.10;99.90
7174;DHT22;3628;48.654;8.932;2023-03-21T02:59:45;9.10;99.90
7174;DHT22;3628;48.654;8.932;2023-03-21T03:02:14;9.10;99.90
7174;DHT22;3628;48.654;8.932;2023-03-21T03:04:40;9.10;99.90
7174;DHT22;3628;48.654;8.932;2023-03-21T03:07:33;9.10;99.90
7174;DHT22;3628;48.654;8.932;2023-03-21T03:13:02;9.10;99.90
7174;DHT22;3628;48.654;8.932;2023-03-21T03:16:09;9.10;99.90
7174;DHT22;3628;48.654;8.932;2023-03-21T03:18:56;9.00;99.90
7174;DHT22;3628;48.654;8.932;2023-03-21T03:21:46;9.00;99.90
7174;DHT22;3628;48.654;8.932;2023-03-21T03:24:19;8.90;99.90
7174;DHT22;3628;48.654;8.932;2023-03-21T03:29:38;8.80;99.90
7174;DHT22;3628;48.654;8.932;2023-03-21T03:32:06;8.80;99.90
7174;DHT22;3628;48.654;8.932;2023-03-21T03:34:38;8.80;99.90
7174;DHT22;3628;48.654;8.932;2023-03-21T03:37:07;8.80;99.90
7174;DHT22;3628;48.654;8.932;2023-03-21T03:39:42;8.80;99.90
7174;DHT22;3628;48.654;8.932;2023-03-21T03:42:20;8.70;99.90
7174;DHT22;3628;48.654;8.932;2023-03-21T03:44:46;8.60;99.90
7174;DHT22;3628;48.654;8.932;2023-03-21T03:47:35;8.60;99.90
7174;DHT22;3628;48.654;8.932;2023-03-21T03:50:13;8.50;99.90
7174;DHT22;3628;48.654;8.932;2023-03-21T03:52:48;8.40;99.90
7174;DHT22;3628;48.654;8.932;2023-03-21T03:55:16;8.40;99.90
7174;DHT22;3628;48.654;8.932;2023-03-21T03:57:43;8.30;99.90
7174;DHT22;3628;48.654;8.932;2023-03-21T04:00:11;8.30;99.90
7174;DHT22;3628;48.654;8.932;2023-03-21T04:02:37;8.20;99.90
7174;DHT22;3628;48.654;8.932;2023-03-21T04:05:03;8.20;99.90
7174;DHT22;3628;48.654;8.932;2023-03-21T04:07:29;8.20;99.90
7174;DHT22;3628;48.654;8.932;2023-03-21T04:09:55;8.10;99.90
7174;DHT22;3628;48.654;8.932;2023-03-21T04:12:21;8.10;99.90
7174;DHT22;3628;48.654;8.932;2023-03-21T04:14:47;8.00;99.90
7174;DHT22;3628;48.654;8.932;2023-03-21T04:17:13;7.90;99.90
7174;DHT22;3628;48.654;8.932;2023-03-21T04:19:39;7.80;99.90
7174;DHT22;3628;48.654;8.932;2023-03-21T04:22:04;7.70;99.90
7174;DHT22;3628;48.654;8.932;2023-03-21T04:24:30;7.60;99.90
7174;DHT22;3628;48.654;8.932;2023-03-21T04:26:58;7.60;99.90
7174;DHT22;3628;48.654;8.932;2023-03-21T04:29:24;7.50;99.90
7174;DHT22;3628;48.654;8.932;2023-03-21T04:31:50;7.40;99.90
7174;DHT22;3628;48.654;8.932;2023-03-21T04:34:15;7.30;99.90
7174;DHT22;3628;48.654;8.932;2023-03-21T04:36:41;7.30;99.90
7174;DHT22;3628;48.654;8.932;2023-03-21T04:39:14;7.20;99.90
7174;DHT22;3628;48.654;8.932;2023-03-21T04:41:42;7.20;99.90
7174;DHT22;3628;48.654;8.932;2023-03-21T04:44:09;7.10;99.90
7174;DHT22;3628;48.654;8.932;2023-03-21T04:46:36;7.00;99.90
7174;DHT22;3628;48.654;8.932;2023-03-21T04:49:02;7.00;99.90
7174;DHT22;3628;48.654;8.932;2023-03-21T04:51:28;7.00;99.90
7174;DHT22;3628;48.654;8.932;2023-03-21T04:53:54;7.00;99.90
7174;DHT22;3628;48.654;8.932;2023-03-21T04:56:25;7.00;99.90
7174;DHT22;3628;48.654;8.932;2023-03-21T04:58:57;7.00;99.90
7174;DHT22;3628;48.654;8.932;2023-03-21T05:01:22;7.00;99.90
7174;DHT22;3628;48.654;8.932;2023-03-21T05:03:50;6.90;99.90
7174;DHT22;3628;48.654;8.932;2023-03-21T05:06:16;6.90;99.90
7174;DHT22;3628;48.654;8.932;2023-03-21T05:08:42;6.80;99.90
7174;DHT22;3628;48.654;8.932;2023-03-21T05:11:07;6.80;99.90
7174;DHT22;3628;48.654;8.932;2023-03-21T05:13:33;6.80;99.90
7174;DHT22;3628;48.654;8.932;2023-03-21T05:15:58;6.80;99.90
7174;DHT22;3628;48.654;8.932;2023-03-21T05:18:24;6.80;99.90
7174;DHT22;3628;48.654;8.932;2023-03-21T05:20:51;6.80;99.90
7174;DHT22;3628;48.654;8.932;2023-03-21T05:23:21;6.80;99.90
7174;DHT22;3628;48.654;8.932;2023-03-21T05:25:46;6.80;99.90
7174;DHT22;3628;48.654;8.932;2023-03-21T05:28:12;6.80;99.90
7174;DHT22;3628;48.654;8.932;2023-03-21T05:30:38;6.80;99.90
7174;DHT22;3628;48.654;8.932;2023-03-21T05:33:03;6.80;99.90
7174;DHT22;3628;48.654;8.932;2023-03-21T05:35:29;6.80;99.90
7174;DHT22;3628;48.654;8.932;2023-03-21T05:37:55;6.80;99.90
7174;DHT22;3628;48.654;8.932;2023-03-21T05:40:21;6.90;99.90
7174;DHT22;3628;48.654;8.932;2023-03-21T05:42:47;7.00;99.90
7174;DHT22;3628;48.654;8.932;2023-03-21T05:45:13;7.00;99.90
7174;DHT22;3628;48.654;8.932;2023-03-21T05:47:39;7.00;99.90
7174;DHT22;3628;48.654;8.932;2023-03-21T05:50:05;7.10;99.90
7174;DHT22;3628;48.654;8.932;2023-03-21T05:52:31;7.10;99.90
7174;DHT22;3628;48.654;8.932;2023-03-21T05:54:57;7.10;99.90
7174;DHT22;3628;48.654;8.932;2023-03-21T05:57:23;7.20;99.90
7174;DHT22;3628;48.654;8.932;2023-03-21T05:59:50;7.20;99.90
7174;DHT22;3628;48.654;8.932;2023-03-21T06:02:15;7.30;99.90
7174;DHT22;3628;48.654;8.932;2023-03-21T06:04:41;7.40;99.90
7174;DHT22;3628;48.654;8.932;2023-03-21T06:07:06;7.40;99.90
7174;DHT22;3628;48.654;8.932;2023-03-21T06:09:32;7.50;99.90
7174;DHT22;3628;48.654;8.932;2023-03-21T06:11:58;7.50;99.90
7174;DHT22;3628;48.654;8.932;2023-03-21T06:14:24;7.50;99.90
7174;DHT22;3628;48.654;8.932;2023-03-21T06:16:51;7.50;99.90
7174;DHT22;3628;48.654;8.932;2023-03-21T06:19:19;7.60;99.90
7174;DHT22;3628;48.654;8.932;2023-03-21T06:21:46;7.60;99.90
7174;DHT22;3628;48.654;8.932;2023-03-21T06:24:11;7.70;99.90
7174;DHT22;3628;48.654;8.932;2023-03-21T06:26:37;7.80;99.90
7174;DHT22;3628;48.654;8.932;2023-03-21T06:29:03;7.80;99.90
7174;DHT22;3628;48.654;8.932;2023-03-21T06:31:29;7.90;99.90
7174;DHT22;3628;48.654;8.932;2023-03-21T06:33:54;8.10;99.90
7174;DHT22;3628;48.654;8.932;2023-03-21T06:36:20;8.10;99.90
7174;DHT22;3628;48.654;8.932;2023-03-21T06:38:46;8.20;99.90
7174;DHT22;3628;48.654;8.932;2023-03-21T06:41:12;8.30;99.90
7174;DHT22;3628;48.654;8.932;2023-03-21T06:43:38;8.40;99.90
7174;DHT22;3628;48.654;8.932;2023-03-21T06:46:04;8.50;99.90
7174;DHT22;3628;48.654;8.932;2023-03-21T06:48:30;8.50;99.90
7174;DHT22;3628;48.654;8.932;2023-03-21T06:50:56;8.70;99.90
7174;DHT22;3628;48.654;8.932;2023-03-21T06:53:23;8.80;99.90
7174;DHT22;3628;48.654;8.932;2023-03-21T06:55:50;8.90;99.90
7174;DHT22;3628;48.654;8.932;2023-03-21T06:58:15;9.00;99.90
7174;DHT22;3628;48.654;8.932;2023-03-21T07:00:41;9.10;99.90
7174;DHT22;3628;48.654;8.932;2023-03-21T07:03:07;9.20;99.90
7174;DHT22;3628;48.654;8.932;2023-03-21T07:05:34;9.30;99.90
7174;DHT22;3628;48.654;8.932;2023-03-21T07:08:00;9.40;99.90
7174;DHT22;3628;48.654;8.932;2023-03-21T07:10:26;9.60;99.90
7174;DHT22;3628;48.654;8.932;2023-03-21T07:12:52;9.80;99.90
7174;DHT22;3628;48.654;8.932;2023-03-21T07:15:17;9.90;99.90
7174;DHT22;3628;48.654;8.932;2023-03-21T07:17:43;10.10;99.90
7174;DHT22;3628;48.654;8.932;2023-03-21T07:20:09;10.20;99.90
7174;DHT22;3628;48.654;8.932;2023-03-21T07:22:37;10.30;99.90
7174;DHT22;3628;48.654;8.932;2023-03-21T07:25:03;10.50;99.90
7174;DHT22;3628;48.654;8.932;2023-03-21T07:27:28;10.60;99.90
7174;DHT22;3628;48.654;8.932;2023-03-21T07:29:54;10.80;99.90
7174;DHT22;3628;48.654;8.932;2023-03-21T07:32:19;11.00;99.90
7174;DHT22;3628;48.654;8.932;2023-03-21T07:34:45;11.20;99.90
7174;DHT22;3628;48.654;8.932;2023-03-21T07:37:11;11.40;99.90
7174;DHT22;3628;48.654;8.932;2023-03-21T07:39:36;11.60;99.90
7174;DHT22;3628;48.654;8.932;2023-03-21T07:42:02;11.80;99.90
7174;DHT22;3628;48.654;8.932;2023-03-21T07:44:28;12.00;99.90
7174;DHT22;3628;48.654;8.932;2023-03-21T07:46:54;12.20;99.90
7174;DHT22;3628;48.654;8.932;2023-03-21T07:49:20;12.50;99.90
7174;DHT22;3628;48.654;8.932;2023-03-21T07:51:46;12.60;99.90
7174;DHT22;3628;48.654;8.932;2023-03-21T07:54:11;12.90;99.90
7174;DHT22;3628;48.654;8.932;2023-03-21T07:56:37;13.00;99.90
7174;DHT22;3628;48.654;8.932;2023-03-21T07:59:02;13.20;99.90
7174;DHT22;3628;48.654;8.932;2023-03-21T08:01:29;13.30;99.90
7174;DHT22;3628;48.654;8.932;2023-03-21T08:03:55;13.40;99.90
7174;DHT22;3628;48.654;8.932;2023-03-21T08:06:21;13.40;99.90
7174;DHT22;3628;48.654;8.932;2023-03-21T08:08:47;13.50;99.90
7174;DHT22;3628;48.654;8.932;2023-03-21T08:11:12;13.50;99.90
7174;DHT22;3628;48.654;8.932;2023-03-21T08:13:39;13.50;99.90
7174;DHT22;3628;48.654;8.932;2023-03-21T08:16:05;13.50;99.90
7174;DHT22;3628;48.654;8.932;2023-03-21T08:18:31;13.50;99.90
7174;DHT22;3628;48.654;8.932;2023-03-21T08:20:57;13.60;99.90
7174;DHT22;3628;48.654;8.932;2023-03-21T08:23:23;13.80;99.90
7174;DHT22;3628;48.654;8.932;2023-03-21T08:25:51;14.00;99.90
7174;DHT22;3628;48.654;8.932;2023-03-21T08:28:17;14.20;99.90
7174;DHT22;3628;48.654;8.932;2023-03-21T08:30:43;14.50;99.90
7174;DHT22;3628;48.654;8.932;2023-03-21T08:33:09;14.90;99.90
7174;DHT22;3628;48.654;8.932;2023-03-21T08:35:34;15.20;99.90
7174;DHT22;3628;48.654;8.932;2023-03-21T08:38:03;15.40;99.90
7174;DHT22;3628;48.654;8.932;2023-03-21T08:40:29;15.50;99.90
7174;DHT22;3628;48.654;8.932;2023-03-21T08:42:54;15.60;99.90
7174;DHT22;3628;48.654;8.932;2023-03-21T08:45:20;15.60;99.90
7174;DHT22;3628;48.654;8.932;2023-03-21T08:47:47;15.80;99.90
7174;DHT22;3628;48.654;8.932;2023-03-21T08:50:16;15.90;99.90
7174;DHT22;3628;48.654;8.932;2023-03-21T08:52:43;15.90;99.90
7174;DHT22;3628;48.654;8.932;2023-03-21T08:55:10;16.00;99.90
7174;DHT22;3628;48.654;8.932;2023-03-21T08:57:35;16.10;99.90
7174;DHT22;3628;48.654;8.932;2023-03-21T09:00:03;16.20;98.10
7174;DHT22;3628;48.654;8.932;2023-03-21T09:02:37;16.20;97.60
7174;DHT22;3628;48.654;8.932;2023-03-21T09:05:03;16.40;96.40
7174;DHT22;3628;48.654;8.932;2023-03-21T09:07:30;16.20;94.30
7174;DHT22;3628;48.654;8.932;2023-03-21T09:09:58;16.30;95.60
7174;DHT22;3628;48.654;8.932;2023-03-21T09:12:25;16.30;94.20
7174;DHT22;3628;48.654;8.932;2023-03-21T09:14:50;16.10;94.50
7174;DHT22;3628;48.654;8.932;2023-03-21T09:17:18;16.20;95.10
7174;DHT22;3628;48.654;8.932;2023-03-21T09:19:43;16.40;94.80
7174;DHT22;3628;48.654;8.932;2023-03-21T09:22:10;16.60;93.70
7174;DHT22;3628;48.654;8.932;2023-03-21T09:24:42;16.60;93.50
7174;DHT22;3628;48.654;8.932;2023-03-21T09:27:08;16.90;93.20
7174;DHT22;3628;48.654;8.932;2023-03-21T09:29:33;17.10;92.70
7174;DHT22;3628;48.654;8.932;2023-03-21T09:31:59;17.30;92.30
7174;DHT22;3628;48.654;8.932;2023-03-21T09:34:26;17.50;91.10
7174;DHT22;3628;48.654;8.932;2023-03-21T09:36:52;17.60;89.80
7174;DHT22;3628;48.654;8.932;2023-03-21T09:39:22;17.40;87.70
7174;DHT22;3628;48.654;8.932;2023-03-21T09:42:15;17.60;89.40
7174;DHT22;3628;48.654;8.932;2023-03-21T09:45:02;17.70;87.70
7174;DHT22;3628;48.654;8.932;2023-03-21T09:47:39;17.40;83.70
7174;DHT22;3628;48.654;8.932;2023-03-21T09:50:15;17.50;85.20
7174;DHT22;3628;48.654;8.932;2023-03-21T09:55:24;17.60;83.60
7174;DHT22;3628;48.654;8.932;2023-03-21T09:58:03;17.70;84.00
7174;DHT22;3628;48.654;8.932;2023-03-21T10:00:38;17.90;82.10
7174;DHT22;3628;48.654;8.932;2023-03-21T10:03:30;18.00;83.10
7174;DHT22;3628;48.654;8.932;2023-03-21T10:05:59;18.10;81.50
7174;DHT22;3628;48.654;8.932;2023-03-21T10:08:34;18.10;80.80
7174;DHT22;3628;48.654;8.932;2023-03-21T10:11:12;18.00;81.00
7174;DHT22;3628;48.654;8.932;2023-03-21T10:13:50;17.70;81.30
7174;DHT22;3628;48.654;8.932;2023-03-21T10:16:28;17.60;81.90
7174;DHT22;3628;48.654;8.932;2023-03-21T10:18:56;17.70;82.90
7174;DHT22;3628;48.654;8.932;2023-03-21T10:21:26;17.70;83.10
7174;DHT22;3628;48.654;8.932;2023-03-21T10:23:54;17.80;84.20
7174;DHT22;3628;48.654;8.932;2023-03-21T10:26:23;18.10;84.00
7174;DHT22;3628;48.654;8.932;2023-03-21T10:28:50;17.70;82.40
7174;DHT22;3628;48.654;8.932;2023-03-21T10:31:19;17.60;84.70
7174;DHT22;3628;48.654;8.932;2023-03-21T10:33:47;17.80;85.30
7174;DHT22;3628;48.654;8.932;2023-03-21T10:36:21;17.90;84.60
7174;DHT22;3628;48.654;8.932;2023-03-21T10:38:53;17.80;84.30
7174;DHT22;3628;48.654;8.932;2023-03-21T10:41:19;17.80;84.70
7174;DHT22;3628;48.654;8.932;2023-03-21T10:43:46;17.70;85.00
7174;DHT22;3628;48.654;8.932;2023-03-21T10:46:17;17.80;84.40
7174;DHT22;3628;48.654;8.932;2023-03-21T10:48:50;17.70;84.60
7174;DHT22;3628;48.654;8.932;2023-03-21T10:51:22;17.60;84.80
7174;DHT22;3628;48.654;8.932;2023-03-21T10:53:56;17.50;85.40
7174;DHT22;3628;48.654;8.932;2023-03-21T10:56:25;17.70;85.70
7174;DHT22;3628;48.654;8.932;2023-03-21T10:58:53;17.80;86.60
7174;DHT22;3628;48.654;8.932;2023-03-21T11:01:39;17.80;84.30
7174;DHT22;3628;48.654;8.932;2023-03-21T11:04:17;17.80;84.60
7174;DHT22;3628;48.654;8.932;2023-03-21T11:06:49;17.60;85.00
7174;DHT22;3628;48.654;8.932;2023-03-21T11:09:21;17.70;84.60
7174;DHT22;3628;48.654;8.932;2023-03-21T11:12:02;17.80;83.50
7174;DHT22;3628;48.654;8.932;2023-03-21T11:14:36;17.90;83.20
7174;DHT22;3628;48.654;8.932;2023-03-21T11:17:18;17.80;83.40
7174;DHT22;3628;48.654;8.932;2023-03-21T11:20:07;17.80;82.90
7174;DHT22;3628;48.654;8.932;2023-03-21T11:22:40;18.00;83.40
7174;DHT22;3628;48.654;8.932;2023-03-21T11:25:14;18.10;83.30
7174;DHT22;3628;48.654;8.932;2023-03-21T11:27:53;18.20;82.70
7174;DHT22;3628;48.654;8.932;2023-03-21T11:30:22;18.20;81.90
7174;DHT22;3628;48.654;8.932;2023-03-21T11:32:56;18.30;81.20
7174;DHT22;3628;48.654;8.932;2023-03-21T11:35:24;18.20;79.60
7174;DHT22;3628;48.654;8.932;2023-03-21T11:37:54;18.00;80.70
7174;DHT22;3628;48.654;8.932;2023-03-21T11:40:25;18.10;81.60
7174;DHT22;3628;48.654;8.932;2023-03-21T11:42:56;18.00;80.60
7174;DHT22;3628;48.654;8.932;2023-03-21T11:45:30;18.10;80.70
7174;DHT22;3628;48.654;8.932;2023-03-21T11:47:58;18.20;80.30
7174;DHT22;3628;48.654;8.932;2023-03-21T11:50:34;18.30;79.00
7174;DHT22;3628;48.654;8.932;2023-03-21T11:58:42;18.10;75.70
7174;DHT22;3628;48.654;8.932;2023-03-21T12:01:30;18.20;75.90
7174;DHT22;3628;48.654;8.932;2023-03-21T12:04:15;18.30;73.30
7174;DHT22;3628;48.654;8.932;2023-03-21T12:09:37;18.40;72.50
7174;DHT22;3628;48.654;8.932;2023-03-21T12:12:14;18.40;70.20
7174;DHT22;3628;48.654;8.932;2023-03-21T12:15:47;18.30;70.00
7174;DHT22;3628;48.654;8.932;2023-03-21T12:18:18;18.40;69.50
7174;DHT22;3628;48.654;8.932;2023-03-21T12:20:53;18.50;67.90
7174;DHT22;3628;48.654;8.932;2023-03-21T12:26:23;18.50;64.70
7174;DHT22;3628;48.654;8.932;2023-03-21T12:32:15;18.60;67.00
7174;DHT22;3628;48.654;8.932;2023-03-21T12:34:48;18.90;65.00
7174;DHT22;3628;48.654;8.932;2023-03-21T12:45:53;19.80;63.80
7174;DHT22;3628;48.654;8.932;2023-03-21T12:48:27;20.00;62.20
7174;DHT22;3628;48.654;8.932;2023-03-21T12:50:55;20.10;61.30
7174;DHT22;3628;48.654;8.932;2023-03-21T12:53:52;20.40;60.60
7174;DHT22;3628;48.654;8.932;2023-03-21T12:59:22;20.20;59.80
7174;DHT22;3628;48.654;8.932;2023-03-21T13:01:54;20.10;59.60
7174;DHT22;3628;48.654;8.932;2023-03-21T13:04:39;20.20;61.50
7174;DHT22;3628;48.654;8.932;2023-03-21T13:07:08;20.30;60.90
7174;DHT22;3628;48.654;8.932;2023-03-21T13:09:40;20.40;61.10
7174;DHT22;3628;48.654;8.932;2023-03-21T13:12:18;20.50;61.10
7174;DHT22;3628;48.654;8.932;2023-03-21T13:15:02;20.70;61.40
7174;DHT22;3628;48.654;8.932;2023-03-21T13:17:36;20.90;61.60
7174;DHT22;3628;48.654;8.932;2023-03-21T13:20:18;20.90;61.10
7174;DHT22;3628;48.654;8.932;2023-03-21T13:22:46;20.90;60.20
7174;DHT22;3628;48.654;8.932;2023-03-21T13:25:23;20.80;60.40
7174;DHT22;3628;48.654;8.932;2023-03-21T13:28:01;20.70;59.90
7174;DHT22;3628;48.654;8.932;2023-03-21T13:30:29;20.80;60.70
7174;DHT22;3628;48.654;8.932;2023-03-21T13:33:10;20.90;59.90
7174;DHT22;3628;48.654;8.932;2023-03-21T13:35:39;20.70;59.70
7174;DHT22;3628;48.654;8.932;2023-03-21T13:38:35;20.60;60.00
7174;DHT22;3628;48.654;8.932;2023-03-21T13:41:12;20.50;60.40
7174;DHT22;3628;48.654;8.932;2023-03-21T13:54:17;20.30;61.90
7174;DHT22;3628;48.654;8.932;2023-03-21T13:56:52;20.20;61.20
7174;DHT22;3628;48.654;8.932;2023-03-21T13:59:41;20.20;61.40
7174;DHT22;3628;48.654;8.932;2023-03-21T14:02:29;20.00;61.20
7174;DHT22;3628;48.654;8.932;2023-03-21T14:05:02;20.00;61.30
7174;DHT22;3628;48.654;8.932;2023-03-21T14:07:31;19.90;61.60
7174;DHT22;3628;48.654;8.932;2023-03-21T14:10:04;19.80;62.10
7174;DHT22;3628;48.654;8.932;2023-03-21T14:12:36;19.80;62.10
7174;DHT22;3628;48.654;8.932;2023-03-21T14:15:07;19.80;62.10
7174;DHT22;3628;48.654;8.932;2023-03-21T14:17:34;19.80;62.30
7174;DHT22;3628;48.654;8.932;2023-03-21T14:20:14;19.90;61.60
7174;DHT22;3628;48.654;8.932;2023-03-21T14:22:40;19.90;61.20
7174;DHT22;3628;48.654;8.932;2023-03-21T14:25:11;19.90;60.90
7174;DHT22;3628;48.654;8.932;2023-03-21T14:27:43;19.90;61.00
7174;DHT22;3628;48.654;8.932;2023-03-21T14:30:39;19.80;59.80
7174;DHT22;3628;48.654;8.932;2023-03-21T14:33:21;19.60;60.50
7174;DHT22;3628;48.654;8.932;2023-03-21T14:35:48;19.70;61.00
7174;DHT22;3628;48.654;8.932;2023-03-21T14:38:20;19.60;60.10
7174;DHT22;3628;48.654;8.932;2023-03-21T14:40:47;19.60;59.70
7174;DHT22;3628;48.654;8.932;2023-03-21T14:43:13;19.50;59.70
7174;DHT22;3628;48.654;8.932;2023-03-21T14:45:39;19.60;59.60
7174;DHT22;3628;48.654;8.932;2023-03-21T14:48:11;19.60;59.30
7174;DHT22;3628;48.654;8.932;2023-03-21T14:50:44;19.60;59.00
7174;DHT22;3628;48.654;8.932;2023-03-21T14:53:35;19.70;60.10
7174;DHT22;3628;48.654;8.932;2023-03-21T14:56:16;19.90;59.30
7174;DHT22;3628;48.654;8.932;2023-03-21T14:58:44;20.00;58.40
7174;DHT22;3628;48.654;8.932;2023-03-21T15:01:29;20.00;58.40
7174;DHT22;3628;48.654;8.932;2023-03-21T15:03:57;20.00;58.10
7174;DHT22;3628;48.654;8.932;2023-03-21T15:06:23;19.90;57.00
7174;DHT22;3628;48.654;8.932;2023-03-21T15:09:03;19.90;57.70
7174;DHT22;3628;48.654;8.932;2023-03-21T15:11:35;20.10;57.80
7174;DHT22;3628;48.654;8.932;2023-03-21T15:14:06;19.80;56.50
7174;DHT22;3628;48.654;8.932;2023-03-21T15:16:33;19.50;57.10
7174;DHT22;3628;48.654;8.932;2023-03-21T15:18:59;19.40;58.20
7174;DHT22;3628;48.654;8.932;2023-03-21T15:21:28;19.30;58.30
7174;DHT22;3628;48.654;8.932;2023-03-21T15:24:05;19.30;58.10
7174;DHT22;3628;48.654;8.932;2023-03-21T15:26:38;19.40;58.10
7174;DHT22;3628;48.654;8.932;2023-03-21T15:29:05;19.40;58.10
7174;DHT22;3628;48.654;8.932;2023-03-21T15:31:35;19.50;58.00
7174;DHT22;3628;48.654;8.932;2023-03-21T15:34:03;19.40;58.40
7174;DHT22;3628;48.654;8.932;2023-03-21T15:36:42;18.90;64.10
7174;DHT22;3628;48.654;8.932;2023-03-21T15:39:12;18.40;68.90
7174;DHT22;3628;48.654;8.932;2023-03-21T15:41:38;18.20;71.00
7174;DHT22;3628;48.654;8.932;2023-03-21T15:44:13;17.70;73.30
7174;DHT22;3628;48.654;8.932;2023-03-21T15:46:46;17.20;75.20
7174;DHT22;3628;48.654;8.932;2023-03-21T15:51:45;16.60;78.50
7174;DHT22;3628;48.654;8.932;2023-03-21T15:54:19;16.40;80.90
7174;DHT22;3628;48.654;8.932;2023-03-21T15:56:46;16.20;80.90
7174;DHT22;3628;48.654;8.932;2023-03-21T15:59:16;16.00;82.00
7174;DHT22;3628;48.654;8.932;2023-03-21T16:01:46;15.90;82.60
7174;DHT22;3628;48.654;8.932;2023-03-21T16:04:13;15.70;83.60
7174;DHT22;3628;48.654;8.932;2023-03-21T16:06:51;15.60;84.20
7174;DHT22;3628;48.654;8.932;2023-03-21T16:09:18;15.50;84.70
7174;DHT22;3628;48.654;8.932;2023-03-21T16:14:14;15.40;86.50
7174;DHT22;3628;48.654;8.932;2023-03-21T16:16:40;15.30;87.40
7174;DHT22;3628;48.654;8.932;2023-03-21T16:19:06;15.30;88.40
7174;DHT22;3628;48.654;8.932;2023-03-21T16:21:32;15.30;88.50
7174;DHT22;3628;48.654;8.932;2023-03-21T16:23:59;15.20;89.70
7174;DHT22;3628;48.654;8.932;2023-03-21T16:26:29;15.20;90.10
7174;DHT22;3628;48.654;8.932;2023-03-21T16:28:55;15.20;90.40
7174;DHT22;3628;48.654;8.932;2023-03-21T16:31:24;15.00;91.10
7174;DHT22;3628;48.654;8.932;2023-03-21T16:33:50;15.00;91.50
7174;DHT22;3628;48.654;8.932;2023-03-21T16:36:19;15.00;92.20
7174;DHT22;3628;48.654;8.932;2023-03-21T16:38:46;15.00;92.70
7174;DHT22;3628;48.654;8.932;2023-03-21T16:41:14;15.00;92.90
7174;DHT22;3628;48.654;8.932;2023-03-21T16:43:41;15.10;93.10
7174;DHT22;3628;48.654;8.932;2023-03-21T16:46:24;15.20;93.40
7174;DHT22;3628;48.654;8.932;2023-03-21T16:48:53;15.20;93.40
7174;DHT22;3628;48.654;8.932;2023-03-21T16:51:21;15.20;93.80
7174;DHT22;3628;48.654;8.932;2023-03-21T16:53:48;15.20;93.80
7174;DHT22;3628;48.654;8.932;2023-03-21T16:56:14;15.20;94.20
7174;DHT22;3628;48.654;8.932;2023-03-21T16:58:41;15.20;94.50
7174;DHT22;3628;48.654;8.932;2023-03-21T17:01:14;15.10;94.60
7174;DHT22;3628;48.654;8.932;2023-03-21T17:03:45;15.10;95.00
7174;DHT22;3628;48.654;8.932;2023-03-21T17:06:17;15.00;95.30
7174;DHT22;3628;48.654;8.932;2023-03-21T17:08:43;15.10;95.50
7174;DHT22;3628;48.654;8.932;2023-03-21T17:11:10;15.10;95.90
7174;DHT22;3628;48.654;8.932;2023-03-21T17:13:36;15.00;95.80
7174;DHT22;3628;48.654;8.932;2023-03-21T17:16:02;15.00;96.20
7174;DHT22;3628;48.654;8.932;2023-03-21T17:18:28;15.00;96.20
7174;DHT22;3628;48.654;8.932;2023-03-21T17:20:53;15.00;96.40
7174;DHT22;3628;48.654;8.932;2023-03-21T17:23:19;14.90;96.60
7174;DHT22;3628;48.654;8.932;2023-03-21T17:25:44;14.90;97.00
7174;DHT22;3628;48.654;8.932;2023-03-21T17:28:10;14.90;97.10
7174;DHT22;3628;48.654;8.932;2023-03-21T17:30:36;14.90;97.60
7174;DHT22;3628;48.654;8.932;2023-03-21T17:33:03;14.90;97.70
7174;DHT22;3628;48.654;8.932;2023-03-21T17:35:29;14.90;97.70
7174;DHT22;3628;48.654;8.932;2023-03-21T17:37:56;14.90;98.10